Time;durP1;ratioP1;P1;durP2;ratioP2;P2;SDS_P1;SDS_P2;PMS_P1;PMS_P2;Temp;Humidity;BMP_temperature;BMP_pressure;BME280_temperature;BME280_humidity;BME280_pressure;Samples;Min_cycle;Max_cycle;Signal;HPM_P1;HPM_P2
2023/08/06 00:01:56;;;;;;;2.10;2.00;;;14.80;99.90;;;;;;4982789;28;20286;-53
2023/08/06 00:04:23;;;;;;;2.67;2.57;;;14.80;99.90;;;;;;4991632;28;20637;-53
2023/08/06 00:06:50;;;;;;;3.23;2.97;;;14.80;99.90;;;;;;4990787;28;20207;-53
2023/08/06 00:09:17;;;;;;;2.93;2.83;;;14.80;99.90;;;;;;4991154;28;20278;-53
2023/08/06 00:11:46;;;;;;;2.97;2.80;;;14.80;99.90;;;;;;4991754;28;20258;-53
2023/08/06 00:14:17;;;;;;;3.43;3.23;;;14.80;99.90;;;;;;4991395;28;20231;-53
2023/08/06 00:16:45;;;;;;;3.80;3.60;;;14.80;99.90;;;;;;4988700;28;20298;-52
2023/08/06 00:19:12;;;;;;;2.90;2.70;;;14.80;99.90;;;;;;4991629;28;20262;-52
2023/08/06 00:21:39;;;;;;;3.20;2.90;;;14.80;99.90;;;;;;4991746;28;20669;-53
2023/08/06 00:24:06;;;;;;;3.30;3.17;;;14.80;99.90;;;;;;4991039;28;20204;-53
2023/08/06 00:26:33;;;;;;;3.27;2.57;;;14.80;99.90;;;;;;4991666;28;20212;-53
2023/08/06 00:29:00;;;;;;;2.77;2.67;;;14.80;99.90;;;;;;4989381;28;20255;-53
2023/08/06 00:31:28;;;;;;;3.10;3.00;;;14.80;99.90;;;;;;4991775;28;20204;-53
2023/08/06 00:33:55;;;;;;;3.00;2.57;;;14.80;99.90;;;;;;4991276;28;20259;-53
2023/08/06 00:36:22;;;;;;;3.23;3.07;;;14.80;99.90;;;;;;4991651;28;20200;-53
2023/08/06 00:38:49;;;;;;;3.40;3.23;;;14.80;99.90;;;;;;4990928;28;20224;-53
2023/08/06 00:41:16;;;;;;;2.80;2.70;;;14.80;99.90;;;;;;4982382;28;20200;-53
2023/08/06 00:43:43;;;;;;;2.57;2.47;;;14.70;99.90;;;;;;4990024;28;20244;-53
2023/08/06 00:46:10;;;;;;;2.67;2.57;;;14.70;99.90;;;;;;4983826;28;20196;-53
2023/08/06 00:48:38;;;;;;;2.10;2.10;;;14.70;99.90;;;;;;4983132;28;20658;-53
2023/08/06 00:51:05;;;;;;;2.70;2.53;;;14.70;99.90;;;;;;4991054;28;20204;-52
2023/08/06 00:53:32;;;;;;;2.27;2.07;;;14.80;99.90;;;;;;4989943;28;20200;-53
2023/08/06 00:56:00;;;;;;;2.77;2.67;;;14.80;99.90;;;;;;4991572;28;20262;-53
2023/08/06 00:58:27;;;;;;;2.83;2.23;;;14.70;99.90;;;;;;4989513;28;20602;-52
2023/08/06 01:00:54;;;;;;;2.40;2.20;;;14.70;99.90;;;;;;4992501;28;20195;-53
2023/08/06 01:03:21;;;;;;;1.93;1.93;;;14.70;99.90;;;;;;4991111;28;20227;-52
2023/08/06 01:05:50;;;;;;;2.10;1.97;;;14.80;99.90;;;;;;4989260;28;20262;-53
2023/08/06 01:08:29;;;;;;;2.20;2.00;;;14.80;99.90;;;;;;4984198;28;20255;-53
2023/08/06 01:11:11;;;;;;;2.80;2.60;;;14.80;99.90;;;;;;4994246;28;20191;-53
2023/08/06 01:13:46;;;;;;;1.83;1.70;;;14.80;99.90;;;;;;4985783;28;20242;-53
2023/08/06 01:16:16;;;;;;;1.60;1.50;;;14.80;99.90;;;;;;4975139;28;20682;-53
2023/08/06 01:18:46;;;;;;;1.80;1.70;;;14.70;99.90;;;;;;4979327;28;20240;-52
2023/08/06 01:21:14;;;;;;;1.60;1.57;;;14.70;99.90;;;;;;4994812;28;20212;-53
2023/08/06 01:23:42;;;;;;;1.10;1.10;;;14.70;99.90;;;;;;4993066;28;20637;-53
2023/08/06 01:26:15;;;;;;;1.80;1.80;;;14.60;99.90;;;;;;4988804;28;20739;-53
2023/08/06 01:28:49;;;;;;;1.50;1.50;;;14.60;99.90;;;;;;4994171;28;20220;-53
2023/08/06 01:31:22;;;;;;;1.90;1.80;;;14.50;99.90;;;;;;4985531;28;20204;-53
2023/08/06 01:33:51;;;;;;;2.07;1.97;;;14.40;99.90;;;;;;4994259;28;20243;-53
2023/08/06 01:36:21;;;;;;;3.00;2.30;;;14.30;99.90;;;;;;4992994;28;20271;-52
2023/08/06 01:38:48;;;;;;;2.23;2.13;;;14.30;99.90;;;;;;4992852;28;20275;-53
2023/08/06 01:41:15;;;;;;;1.63;1.63;;;14.20;99.90;;;;;;4994052;28;20258;-53
2023/08/06 01:43:42;;;;;;;2.50;2.37;;;14.20;99.90;;;;;;4992903;28;20220;-53
2023/08/06 01:46:09;;;;;;;2.73;2.53;;;14.20;99.90;;;;;;4986395;28;20208;-53
2023/08/06 01:48:36;;;;;;;1.80;1.70;;;14.10;99.90;;;;;;4994027;28;20648;-53
2023/08/06 01:51:05;;;;;;;1.40;1.40;;;14.10;99.90;;;;;;4993996;28;20239;-52
2023/08/06 01:53:33;;;;;;;2.07;1.50;;;14.00;99.90;;;;;;4985658;28;20201;-53
2023/08/06 01:56:00;;;;;;;1.90;1.80;;;14.00;99.90;;;;;;4989768;28;20986;-53
2023/08/06 01:58:27;;;;;;;2.10;2.00;;;13.90;99.90;;;;;;4989783;28;20275;-53
2023/08/06 02:00:54;;;;;;;1.60;1.60;;;13.90;99.90;;;;;;4990113;28;20204;-53
2023/08/06 02:03:21;;;;;;;1.40;1.40;;;13.90;99.90;;;;;;4990005;28;20278;-53
2023/08/06 02:05:48;;;;;;;1.53;1.40;;;13.90;99.90;;;;;;4990644;28;20258;-53
2023/08/06 02:08:15;;;;;;;1.50;1.50;;;13.90;99.90;;;;;;4986569;28;20270;-53
2023/08/06 02:10:43;;;;;;;1.17;0.97;;;13.90;99.90;;;;;;4993925;28;20250;-53
2023/08/06 02:13:10;;;;;;;1.00;1.00;;;13.90;99.90;;;;;;4993785;28;20616;-53
2023/08/06 02:15:42;;;;;;;1.47;1.37;;;13.80;99.90;;;;;;4993929;28;20254;-53
2023/08/06 02:18:09;;;;;;;1.20;1.20;;;13.90;99.90;;;;;;4993785;28;20200;-53
2023/08/06 02:20:36;;;;;;;1.20;1.10;;;13.80;99.90;;;;;;4991047;28;20211;-53
2023/08/06 02:23:03;;;;;;;1.33;1.23;;;13.80;99.90;;;;;;4992593;28;20216;-53
2023/08/06 02:25:30;;;;;;;1.30;1.30;;;13.80;99.90;;;;;;4993827;28;20212;-53
2023/08/06 02:28:01;;;;;;;1.50;1.40;;;13.70;99.90;;;;;;4993854;28;20261;-53
2023/08/06 02:30:28;;;;;;;1.83;1.80;;;13.70;99.90;;;;;;4993742;28;20200;-53
2023/08/06 02:32:57;;;;;;;2.73;2.57;;;13.70;99.90;;;;;;4992175;28;20290;-53
2023/08/06 02:35:25;;;;;;;1.43;1.33;;;13.70;99.90;;;;;;4993668;28;20199;-54
2023/08/06 02:37:52;;;;;;;1.40;1.30;;;13.70;99.90;;;;;;4984694;28;20203;-53
2023/08/06 02:40:19;;;;;;;2.00;1.87;;;13.60;99.90;;;;;;4993590;28;20228;-53
2023/08/06 02:42:45;;;;;;;2.07;1.97;;;13.60;99.90;;;;;;4991939;28;20645;-53
2023/08/06 02:45:14;;;;;;;1.40;1.40;;;13.70;99.90;;;;;;4984947;28;20208;-53
2023/08/06 02:47:41;;;;;;;2.13;2.03;;;13.70;99.90;;;;;;4993527;28;20199;-53
2023/08/06 02:50:08;;;;;;;2.40;2.20;;;13.70;99.90;;;;;;4989062;28;20294;-53
2023/08/06 02:52:35;;;;;;;2.10;2.00;;;13.70;99.90;;;;;;4988749;28;20732;-53
2023/08/06 02:55:02;;;;;;;3.60;1.53;;;13.70;99.90;;;;;;4993281;28;20258;-52
2023/08/06 02:57:29;;;;;;;2.63;1.73;;;13.70;99.90;;;;;;4992679;28;20212;-55
2023/08/06 02:59:56;;;;;;;2.13;2.03;;;13.70;99.90;;;;;;4990606;28;20223;-53
2023/08/06 03:02:25;;;;;;;2.53;2.10;;;13.70;99.90;;;;;;4993058;28;20208;-53
2023/08/06 03:04:52;;;;;;;2.13;2.13;;;13.60;99.90;;;;;;4993075;28;20700;-53
2023/08/06 03:07:18;;;;;;;1.70;1.67;;;13.70;99.90;;;;;;4992386;28;20232;-53
2023/08/06 03:09:45;;;;;;;1.33;1.23;;;13.80;99.90;;;;;;4992887;28;20278;-53
2023/08/06 03:12:12;;;;;;;2.10;2.00;;;13.70;99.90;;;;;;4987690;28;20205;-53
2023/08/06 03:14:39;;;;;;;1.70;1.70;;;13.70;99.90;;;;;;4989299;28;20203;-53
2023/08/06 03:17:06;;;;;;;1.97;1.87;;;13.60;99.90;;;;;;4992854;28;20208;-53
2023/08/06 03:19:35;;;;;;;2.20;2.10;;;13.50;99.90;;;;;;4992704;28;20780;-53
2023/08/06 03:22:02;;;;;;;1.93;1.83;;;13.50;99.90;;;;;;4981362;28;20215;-53
2023/08/06 03:24:29;;;;;;;1.80;1.70;;;13.40;99.90;;;;;;4982079;28;20282;-53
2023/08/06 03:26:56;;;;;;;2.17;2.07;;;13.40;99.90;;;;;;4992830;28;20207;-53
2023/08/06 03:29:23;;;;;;;2.23;2.13;;;13.40;99.90;;;;;;4992739;28;20282;-53
2023/08/06 03:31:49;;;;;;;2.30;2.13;;;13.40;99.90;;;;;;4992481;28;20753;-53
2023/08/06 03:34:16;;;;;;;25.77;2.40;;;13.40;99.90;;;;;;4991861;28;20250;-54
2023/08/06 03:36:45;;;;;;;2.00;1.53;;;13.40;99.90;;;;;;4983094;28;20200;-53
2023/08/06 03:39:13;;;;;;;2.07;2.00;;;13.40;99.90;;;;;;4992291;28;20270;-53
2023/08/06 03:41:41;;;;;;;2.07;1.80;;;13.30;99.90;;;;;;4992750;28;20207;-53
2023/08/06 03:44:08;;;;;;;2.40;2.30;;;13.30;99.90;;;;;;4992125;28;20220;-53
2023/08/06 03:46:35;;;;;;;2.00;1.70;;;13.40;99.90;;;;;;4992430;28;20262;-53
2023/08/06 03:49:02;;;;;;;2.43;2.10;;;13.40;99.90;;;;;;4991490;28;20318;-53
2023/08/06 03:51:29;;;;;;;1.83;1.77;;;13.40;99.90;;;;;;4991496;28;20200;-53
2023/08/06 03:53:57;;;;;;;1.93;1.83;;;13.40;99.90;;;;;;4992271;28;20203;-53
2023/08/06 03:56:24;;;;;;;1.93;1.80;;;13.40;99.90;;;;;;4992579;28;20200;-53
2023/08/06 03:58:51;;;;;;;2.10;2.10;;;13.40;99.90;;;;;;4992386;28;20286;-53
2023/08/06 04:01:18;;;;;;;1.83;1.73;;;13.40;99.90;;;;;;4991386;28;20280;-53
2023/08/06 04:03:45;;;;;;;2.10;2.00;;;13.40;99.90;;;;;;4988195;28;20267;-53
2023/08/06 04:06:11;;;;;;;1.73;1.73;;;13.30;99.90;;;;;;4983313;28;20208;-53
2023/08/06 04:08:38;;;;;;;1.73;1.50;;;13.30;99.90;;;;;;4983862;28;20228;-53
2023/08/06 04:11:07;;;;;;;2.20;2.10;;;13.30;99.90;;;;;;4991943;28;20254;-53
2023/08/06 04:13:34;;;;;;;2.13;2.03;;;13.40;99.90;;;;;;4991035;28;20270;-53
2023/08/06 04:16:03;;;;;;;2.37;2.27;;;13.30;99.90;;;;;;4991926;28;20256;-53
2023/08/06 04:18:30;;;;;;;2.67;1.97;;;13.30;99.90;;;;;;4990840;28;20263;-53
2023/08/06 04:20:57;;;;;;;1.70;1.60;;;13.40;99.90;;;;;;4991151;28;20310;-53
2023/08/06 04:23:24;;;;;;;2.20;1.97;;;13.40;99.90;;;;;;4991711;28;20255;-53
2023/08/06 04:25:51;;;;;;;5.20;2.33;;;13.40;99.90;;;;;;4989784;28;20679;-53
2023/08/06 04:28:20;;;;;;;2.70;2.50;;;13.40;99.90;;;;;;4982524;28;20262;-54
2023/08/06 04:30:48;;;;;;;2.57;2.47;;;13.40;99.90;;;;;;4991517;28;20207;-53
2023/08/06 04:33:15;;;;;;;2.77;2.57;;;13.50;99.90;;;;;;4987929;28;20192;-53
2023/08/06 04:35:42;;;;;;;1.97;1.87;;;13.50;99.90;;;;;;4983254;28;20212;-53
2023/08/06 04:38:09;;;;;;;2.10;2.00;;;13.60;99.90;;;;;;4991831;28;20200;-53
2023/08/06 04:40:36;;;;;;;2.17;1.93;;;13.60;99.90;;;;;;4992090;28;20255;-52
2023/08/06 04:43:03;;;;;;;3.07;2.23;;;13.60;99.90;;;;;;4991602;28;20226;-53
2023/08/06 04:45:31;;;;;;;1.80;1.80;;;13.60;99.90;;;;;;4994250;28;20261;-52
2023/08/06 04:48:00;;;;;;;2.83;2.63;;;13.60;99.90;;;;;;4986450;28;20893;-52
2023/08/06 04:50:27;;;;;;;1.80;1.70;;;13.60;99.90;;;;;;4992986;28;20258;-53
2023/08/06 04:52:55;;;;;;;2.13;2.03;;;13.60;99.90;;;;;;4987196;28;20265;-53
2023/08/06 04:55:22;;;;;;;2.43;1.80;;;13.60;99.90;;;;;;4995574;28;20211;-53
2023/08/06 04:57:49;;;;;;;2.67;2.57;;;13.60;99.90;;;;;;4995407;28;20207;-52
2023/08/06 05:00:16;;;;;;;2.33;2.23;;;13.70;99.90;;;;;;4995375;28;20223;-53
2023/08/06 05:02:44;;;;;;;5.70;2.80;;;13.80;99.90;;;;;;4994177;28;20206;-53
2023/08/06 05:05:11;;;;;;;3.47;3.23;;;13.70;99.90;;;;;;4985610;28;20641;-54
2023/08/06 05:07:38;;;;;;;2.53;2.43;;;13.70;99.90;;;;;;4991236;28;20208;-52
2023/08/06 05:10:06;;;;;;;9.13;2.17;;;13.80;99.90;;;;;;4995044;28;20278;-53
2023/08/06 05:12:33;;;;;;;2.63;2.33;;;13.90;99.90;;;;;;4995146;28;20200;-52
2023/08/06 05:15:00;;;;;;;2.30;2.20;;;14.00;99.90;;;;;;4995294;28;20196;-53
2023/08/06 05:17:27;;;;;;;2.20;2.10;;;14.20;99.90;;;;;;4985064;28;20734;-52
2023/08/06 05:19:56;;;;;;;2.70;2.60;;;14.30;99.90;;;;;;4996830;28;20605;-53
2023/08/06 05:22:23;;;;;;;2.70;2.60;;;14.30;99.90;;;;;;4996011;28;20200;-52
2023/08/06 05:24:50;;;;;;;2.07;1.97;;;14.40;99.90;;;;;;4997157;28;20223;-54
2023/08/06 05:27:18;;;;;;;2.60;2.40;;;14.40;99.90;;;;;;4998665;28;20204;-52
2023/08/06 05:29:46;;;;;;;2.97;2.87;;;14.40;99.90;;;;;;4994272;28;20235;-52
2023/08/06 05:32:13;;;;;;;2.13;2.10;;;14.60;99.90;;;;;;4994620;28;20610;-52
2023/08/06 05:34:41;;;;;;;2.63;2.50;;;14.60;99.90;;;;;;4975310;28;20583;-52
2023/08/06 05:37:09;;;;;;;3.60;2.10;;;14.50;99.90;;;;;;4994750;28;20227;-53
2023/08/06 05:39:36;;;;;;;3.53;2.20;;;14.50;99.90;;;;;;4994609;28;20752;-53
2023/08/06 05:42:04;;;;;;;2.07;2.07;;;14.50;99.90;;;;;;4994552;28;20204;-53
2023/08/06 05:44:30;;;;;;;3.03;2.83;;;14.40;99.90;;;;;;4993726;28;20224;-53
2023/08/06 05:46:57;;;;;;;3.37;2.07;;;14.60;99.90;;;;;;4994687;28;20203;-53
2023/08/06 05:49:24;;;;;;;1.53;1.50;;;14.60;99.90;;;;;;4994449;28;20227;-52
2023/08/06 05:51:53;;;;;;;2.63;1.97;;;14.60;99.90;;;;;;5008120;28;20269;-51
2023/08/06 05:54:21;;;;;;;1.63;1.63;;;14.60;99.90;;;;;;5000630;28;20204;-52
2023/08/06 05:56:48;;;;;;;1.47;1.37;;;14.60;99.90;;;;;;4975034;28;20256;-52
2023/08/06 05:59:15;;;;;;;1.23;1.23;;;14.70;99.90;;;;;;4974861;28;20252;-53
2023/08/06 06:01:42;;;;;;;1.60;1.50;;;14.70;99.90;;;;;;4977521;28;20242;-52
2023/08/06 06:04:09;;;;;;;0.83;0.83;;;14.70;99.90;;;;;;4992310;28;20223;-52
2023/08/06 06:06:36;;;;;;;1.87;0.80;;;14.60;99.90;;;;;;4994382;28;20678;-53
2023/08/06 06:09:03;;;;;;;0.70;0.70;;;14.70;99.90;;;;;;5004666;28;20273;-52
2023/08/06 06:11:31;;;;;;;1.27;0.50;;;14.70;99.90;;;;;;4997076;28;20203;-52
2023/08/06 06:13:58;;;;;;;0.57;0.57;;;14.70;99.90;;;;;;4993222;28;20729;-52
2023/08/06 06:16:25;;;;;;;0.30;0.30;;;14.60;99.90;;;;;;4993509;28;20203;-53
2023/08/06 06:18:52;;;;;;;0.97;0.50;;;14.40;99.90;;;;;;4993264;28;20232;-51
2023/08/06 06:21:19;;;;;;;0.30;0.20;;;14.40;99.90;;;;;;4993428;28;20612;-51
2023/08/06 06:23:46;;;;;;;1.27;0.20;;;14.30;99.90;;;;;;4992932;28;20836;-51
2023/08/06 06:26:14;;;;;;;0.40;0.10;;;14.20;99.90;;;;;;4993498;28;20199;-51
2023/08/06 06:28:42;;;;;;;2.10;0.20;;;14.20;99.90;;;;;;4987792;28;20290;-51
2023/08/06 06:31:09;;;;;;;0.60;0.20;;;14.10;99.90;;;;;;4985049;28;20208;-51
2023/08/06 06:33:36;;;;;;;2.77;0.20;;;14.20;99.90;;;;;;4992641;28;20203;-51
2023/08/06 06:36:03;;;;;;;1.30;0.20;;;14.20;99.90;;;;;;4988285;28;20211;-51
2023/08/06 06:38:30;;;;;;;0.20;0.10;;;14.20;99.90;;;;;;4986615;28;20591;-52
2023/08/06 06:40:58;;;;;;;0.73;0.30;;;14.20;99.90;;;;;;4991268;28;20258;-52
2023/08/06 06:43:25;;;;;;;0.47;0.23;;;14.20;99.90;;;;;;4992400;28;20684;-51
2023/08/06 06:45:58;;;;;;;0.60;0.20;;;14.20;99.90;;;;;;4992826;28;20204;-52
2023/08/06 06:48:25;;;;;;;0.20;0.10;;;14.20;99.90;;;;;;4992775;28;20315;-51
2023/08/06 06:50:52;;;;;;;0.10;0.10;;;14.30;99.90;;;;;;4990593;28;20203;-51
2023/08/06 06:53:19;;;;;;;0.30;0.20;;;14.30;99.90;;;;;;4979165;28;20461;-52
2023/08/06 06:55:49;;;;;;;0.20;0.20;;;14.20;99.90;;;;;;4984588;28;20203;-63
2023/08/06 06:58:16;;;;;;;0.40;0.20;;;14.20;99.90;;;;;;4986055;28;20283;-59
2023/08/06 07:00:43;;;;;;;0.20;0.20;;;14.30;99.90;;;;;;5012050;28;20203;-59
2023/08/06 07:03:12;;;;;;;0.30;0.30;;;14.40;99.90;;;;;;4987508;28;20205;-63
2023/08/06 07:05:39;;;;;;;0.50;0.50;;;14.40;99.90;;;;;;4980950;28;20239;-63
2023/08/06 07:08:06;;;;;;;1.40;0.30;;;14.40;99.90;;;;;;4991681;28;20196;-62
2023/08/06 07:10:33;;;;;;;2.67;0.30;;;14.50;99.90;;;;;;4992139;28;20271;-64
2023/08/06 07:13:01;;;;;;;0.20;0.20;;;14.60;99.90;;;;;;4991876;28;20204;-52
2023/08/06 07:15:28;;;;;;;1.20;0.17;;;14.70;99.90;;;;;;4992092;28;20239;-60
2023/08/06 07:17:58;;;;;;;0.17;0.17;;;14.90;99.90;;;;;;4982667;28;20310;-65
2023/08/06 07:20:29;;;;;;;0.40;0.40;;;14.90;99.90;;;;;;4991566;28;20262;-65
2023/08/06 07:22:58;;;;;;;0.10;0.10;;;15.00;99.90;;;;;;4982196;28;20232;-63
2023/08/06 07:25:25;;;;;;;0.20;0.20;;;15.10;99.90;;;;;;4985144;28;20266;-65
2023/08/06 07:27:56;;;;;;;0.20;0.20;;;15.30;99.90;;;;;;4996520;28;20200;-64
2023/08/06 07:30:23;;;;;;;0.43;0.30;;;15.40;99.90;;;;;;4990418;28;20736;-64
2023/08/06 07:32:50;;;;;;;0.70;0.20;;;16.10;99.90;;;;;;5037469;23;20296;-59
2023/08/06 07:35:17;;;;;;;0.30;0.30;;;17.60;99.90;;;;;;5030425;28;20248;-58
2023/08/06 07:37:46;;;;;;;0.20;0.20;;;18.20;99.90;;;;;;5027824;28;20268;-58
2023/08/06 07:40:13;;;;;;;1.13;0.30;;;18.40;99.90;;;;;;5030347;28;20259;-58
2023/08/06 07:42:40;;;;;;;0.20;0.20;;;18.40;99.90;;;;;;5029872;28;20280;-58
2023/08/06 07:45:09;;;;;;;0.40;0.30;;;18.20;99.90;;;;;;5026010;28;20795;-57
2023/08/06 07:47:36;;;;;;;0.27;0.27;;;17.90;99.90;;;;;;5026707;28;20202;-59
2023/08/06 07:50:03;;;;;;;0.20;0.20;;;17.80;99.90;;;;;;5031165;28;20206;-59
2023/08/06 07:52:30;;;;;;;0.20;0.20;;;17.90;99.90;;;;;;5030656;28;20226;-59
2023/08/06 07:55:00;;;;;;;3.10;1.17;;;18.50;99.90;;;;;;5031033;28;20206;-59
2023/08/06 07:57:27;;;;;;;0.40;0.20;;;18.80;99.90;;;;;;5031308;28;20210;-58
2023/08/06 07:59:54;;;;;;;0.20;0.20;;;18.90;99.90;;;;;;5025296;28;20269;-60
2023/08/06 08:02:21;;;;;;;0.20;0.20;;;18.90;99.90;;;;;;5024413;28;20264;-59
2023/08/06 08:04:48;;;;;;;0.43;0.20;;;18.80;99.90;;;;;;5031069;28;20272;-58
2023/08/06 08:07:15;;;;;;;1.60;0.30;;;18.60;99.90;;;;;;5031110;28;20202;-57
2023/08/06 08:09:42;;;;;;;0.73;0.10;;;18.40;99.90;;;;;;5031104;28;20206;-59
2023/08/06 08:12:10;;;;;;;2.20;0.10;;;18.30;99.90;;;;;;5023289;28;20214;-58
2023/08/06 08:14:37;;;;;;;0.60;0.20;;;17.90;99.90;;;;;;5021850;28;20198;-58
2023/08/06 08:17:06;;;;;;;1.40;0.10;;;17.60;99.90;;;;;;5029513;28;20241;-58
2023/08/06 08:19:33;;;;;;;0.40;0.10;;;17.30;99.90;;;;;;5030390;28;20517;-58
2023/08/06 08:22:00;;;;;;;0.20;0.20;;;17.20;99.90;;;;;;5033612;28;20214;-59
2023/08/06 08:24:27;;;;;;;0.17;0.10;;;16.90;99.90;;;;;;5033195;28;20722;-60
2023/08/06 08:26:54;;;;;;;0.20;0.20;;;16.80;99.90;;;;;;5031712;28;20209;-60
2023/08/06 08:29:24;;;;;;;0.50;0.13;;;16.80;99.90;;;;;;5029839;28;20254;-51
2023/08/06 08:31:51;;;;;;;0.57;0.57;;;16.80;99.90;;;;;;5028976;28;20726;-51
2023/08/06 08:34:18;;;;;;;1.53;0.10;;;16.70;99.90;;;;;;5028672;28;20202;-51
2023/08/06 08:36:47;;;;;;;0.43;0.30;;;16.60;99.90;;;;;;5032600;28;20210;-51
2023/08/06 08:39:14;;;;;;;0.53;0.20;;;16.50;99.90;;;;;;5032621;28;20206;-51
2023/08/06 08:41:41;;;;;;;1.30;0.40;;;16.30;99.90;;;;;;5030390;28;20229;-51
2023/08/06 08:44:10;;;;;;;0.50;0.20;;;16.20;99.90;;;;;;5032154;28;20206;-51
2023/08/06 08:46:41;;;;;;;0.53;0.13;;;16.20;99.90;;;;;;5032308;28;20214;-51
2023/08/06 08:49:08;;;;;;;0.10;0.10;;;16.20;99.90;;;;;;5031961;28;20202;-51
2023/08/06 08:51:35;;;;;;;0.27;0.10;;;16.10;99.90;;;;;;5032651;28;20202;-51
2023/08/06 08:54:04;;;;;;;1.33;0.27;;;16.10;99.90;;;;;;5032366;28;20194;-51
2023/08/06 08:56:32;;;;;;;0.87;0.10;;;16.10;99.90;;;;;;5028818;28;20195;-51
2023/08/06 08:58:59;;;;;;;1.27;0.17;;;16.00;99.90;;;;;;5031747;28;20667;-51
2023/08/06 09:01:28;;;;;;;0.17;0.10;;;15.90;99.90;;;;;;5030381;28;20229;-51
2023/08/06 09:03:58;;;;;;;5.10;0.97;;;15.90;99.90;;;;;;5026462;28;20226;-51
2023/08/06 09:06:28;;;;;;;0.50;0.00;;;15.80;99.90;;;;;;5027929;28;20249;-51
2023/08/06 09:09:02;;;;;;;0.33;0.00;;;15.80;99.90;;;;;;5024866;28;20230;-51
2023/08/06 09:11:31;;;;;;;0.37;0.00;;;15.70;99.90;;;;;;5026169;28;20575;-52
2023/08/06 09:13:59;;;;;;;0.20;0.10;;;15.80;99.90;;;;;;5029594;28;20234;-52
2023/08/06 09:16:26;;;;;;;0.30;0.10;;;15.80;99.90;;;;;;5029530;28;20286;-51
2023/08/06 09:18:53;;;;;;;0.00;0.00;;;15.80;99.90;;;;;;5031319;28;20203;-51
2023/08/06 09:21:22;;;;;;;1.50;0.10;;;15.70;99.90;;;;;;5030906;28;20256;-52
2023/08/06 09:23:49;;;;;;;0.60;0.10;;;15.80;99.90;;;;;;5031155;28;20260;-51
2023/08/06 09:26:16;;;;;;;0.53;0.07;;;15.80;99.90;;;;;;5027406;28;20288;-51
2023/08/06 09:28:43;;;;;;;1.70;0.03;;;15.90;99.90;;;;;;5029026;28;20190;-52
2023/08/06 09:31:11;;;;;;;1.50;0.50;;;16.00;99.90;;;;;;5030466;28;20201;-51
2023/08/06 09:33:39;;;;;;;0.33;0.10;;;16.10;99.90;;;;;;5031561;28;20319;-52
2023/08/06 09:36:10;;;;;;;0.00;0.00;;;16.00;99.90;;;;;;5031569;28;20219;-52
2023/08/06 09:38:41;;;;;;;0.10;0.00;;;16.00;99.90;;;;;;5030408;28;20692;-51
2023/08/06 09:41:08;;;;;;;0.00;0.00;;;15.90;99.90;;;;;;5028682;28;20226;-50
2023/08/06 09:43:44;;;;;;;0.10;0.10;;;15.70;99.90;;;;;;5031875;28;20289;-51
2023/08/06 09:46:16;;;;;;;0.00;0.00;;;15.50;99.90;;;;;;5030426;28;20363;-50
2023/08/06 09:48:46;;;;;;;0.00;0.00;;;15.30;99.90;;;;;;5028985;28;20202;-50
2023/08/06 09:51:15;;;;;;;0.20;0.10;;;15.10;99.90;;;;;;5029741;28;20292;-51
2023/08/06 09:53:44;;;;;;;0.20;0.13;;;14.90;99.90;;;;;;5027597;28;20226;-51
2023/08/06 09:56:12;;;;;;;0.77;0.00;;;14.60;99.90;;;;;;5031518;28;20191;-51
2023/08/06 09:58:40;;;;;;;0.03;0.00;;;14.40;99.90;;;;;;5032363;28;20293;-51
2023/08/06 10:01:07;;;;;;;0.00;0.00;;;14.50;99.90;;;;;;5031712;28;20264;-51
2023/08/06 10:03:36;;;;;;;0.10;0.00;;;14.40;99.90;;;;;;5028807;28;20226;-51
2023/08/06 10:06:06;;;;;;;0.10;0.10;;;14.40;99.90;;;;;;5029052;28;20228;-50
2023/08/06 10:08:33;;;;;;;0.00;0.00;;;14.40;99.90;;;;;;5020859;28;20294;-51
2023/08/06 10:11:05;;;;;;;0.10;0.10;;;14.50;99.90;;;;;;5023388;28;20616;-51
2023/08/06 10:13:34;;;;;;;0.10;0.10;;;14.60;99.90;;;;;;5030890;28;20222;-51
2023/08/06 10:16:02;;;;;;;0.00;0.00;;;14.70;99.90;;;;;;5032011;28;20568;-51
2023/08/06 10:18:30;;;;;;;0.60;0.00;;;14.80;99.90;;;;;;5031620;28;20237;-57
2023/08/06 10:20:57;;;;;;;0.00;0.00;;;14.80;99.90;;;;;;5032802;28;20214;-59
2023/08/06 10:23:35;;;;;;;0.00;0.00;;;14.90;99.90;;;;;;5032297;28;20222;-59
2023/08/06 10:26:03;;;;;;;1.03;0.00;;;15.10;99.90;;;;;;5032415;28;20230;-59
2023/08/06 10:28:36;;;;;;;0.10;0.10;;;15.30;99.90;;;;;;5032492;28;20202;-58
2023/08/06 10:31:04;;;;;;;0.00;0.00;;;15.40;99.90;;;;;;5030047;28;20230;-51
2023/08/06 10:33:42;;;;;;;0.00;0.00;;;15.40;99.90;;;;;;5025172;28;20313;-51
2023/08/06 10:36:10;;;;;;;0.00;0.00;;;15.50;99.90;;;;;;5031502;28;20194;-51
2023/08/06 10:38:45;;;;;;;0.10;0.00;;;15.60;99.90;;;;;;5023657;28;20649;-52
2023/08/06 10:41:23;;;;;;;0.07;0.00;;;15.80;99.90;;;;;;5024705;28;20260;-51
2023/08/06 10:43:51;;;;;;;0.97;0.00;;;15.90;99.90;;;;;;5028358;28;20229;-51
2023/08/06 10:46:28;;;;;;;0.10;0.10;;;16.00;99.90;;;;;;5028965;28;20261;-51
2023/08/06 10:48:55;;;;;;;0.03;0.03;;;16.10;99.90;;;;;;5030910;28;20206;-52
2023/08/06 10:51:23;;;;;;;0.10;0.10;;;16.00;99.90;;;;;;5031083;28;20206;-52
2023/08/06 10:53:51;;;;;;;0.17;0.07;;;15.90;99.90;;;;;;5028086;28;20203;-55
2023/08/06 10:56:22;;;;;;;0.00;0.00;;;15.90;99.90;;;;;;5028876;28;20248;-51
2023/08/06 10:58:49;;;;;;;0.73;0.10;;;15.90;99.90;;;;;;5029333;28;20208;-51
2023/08/06 11:01:17;;;;;;;0.00;0.00;;;15.80;99.90;;;;;;5024228;28;20206;-50
2023/08/06 11:03:45;;;;;;;0.00;0.00;;;15.70;99.90;;;;;;5021807;28;20646;-50
2023/08/06 11:06:17;;;;;;;0.30;0.00;;;15.70;99.90;;;;;;5025584;28;20210;-50
2023/08/06 11:08:49;;;;;;;0.10;0.10;;;15.60;99.90;;;;;;5028824;28;20759;-51
2023/08/06 11:11:18;;;;;;;0.13;0.00;;;15.80;99.90;;;;;;5021847;28;20210;-50
2023/08/06 11:13:47;;;;;;;0.60;0.17;;;15.90;99.90;;;;;;5023176;28;20225;-50
2023/08/06 11:16:16;;;;;;;0.10;0.10;;;15.90;99.90;;;;;;5021367;28;20211;-51
2023/08/06 11:18:44;;;;;;;0.23;0.10;;;16.00;99.90;;;;;;5026303;28;20225;-51
2023/08/06 11:21:12;;;;;;;1.03;0.07;;;16.10;99.90;;;;;;5029637;28;20345;-51
2023/08/06 11:23:40;;;;;;;0.10;0.10;;;16.30;99.90;;;;;;5031994;28;20292;-52
2023/08/06 11:26:07;;;;;;;1.13;0.10;;;16.20;99.90;;;;;;5030699;28;20222;-52
2023/08/06 11:28:35;;;;;;;0.07;0.07;;;16.10;99.90;;;;;;5031281;28;20611;-51
2023/08/06 11:31:03;;;;;;;0.00;0.00;;;16.10;99.90;;;;;;5027478;28;20727;-52
2023/08/06 11:33:31;;;;;;;0.00;0.00;;;16.00;99.90;;;;;;5024757;28;20288;-51
2023/08/06 11:35:59;;;;;;;0.07;0.00;;;16.00;99.90;;;;;;5029961;28;20684;-52
2023/08/06 11:38:27;;;;;;;0.17;0.10;;;15.90;99.90;;;;;;5030876;28;20202;-52
2023/08/06 11:40:54;;;;;;;0.33;0.17;;;15.90;99.90;;;;;;5030310;28;20707;-52
2023/08/06 11:43:22;;;;;;;0.00;0.00;;;15.80;99.90;;;;;;5023889;28;20227;-52
2023/08/06 11:45:53;;;;;;;0.13;0.13;;;15.80;99.90;;;;;;5026922;28;20659;-51
2023/08/06 11:48:20;;;;;;;0.10;0.10;;;15.70;99.90;;;;;;5025584;28;20202;-51
2023/08/06 11:50:47;;;;;;;0.27;0.07;;;15.50;99.90;;;;;;5030055;28;20209;-51
2023/08/06 11:53:16;;;;;;;1.07;0.10;;;15.40;99.90;;;;;;5022069;28;20226;-52
2023/08/06 11:55:45;;;;;;;0.93;0.10;;;15.20;99.90;;;;;;5019745;28;20195;-52
2023/08/06 11:58:13;;;;;;;1.17;0.00;;;15.00;99.90;;;;;;5031098;28;20195;-51
2023/08/06 12:00:40;;;;;;;0.67;0.07;;;15.00;99.90;;;;;;5029321;28;20206;-52
2023/08/06 12:03:08;;;;;;;0.93;0.00;;;15.00;99.90;;;;;;5029502;28;20230;-51
2023/08/06 12:05:36;;;;;;;0.20;0.10;;;14.90;99.90;;;;;;5028828;28;20222;-51
2023/08/06 12:08:04;;;;;;;0.10;0.10;;;15.00;99.90;;;;;;5025119;28;20207;-52
2023/08/06 12:10:32;;;;;;;1.80;0.10;;;15.00;99.90;;;;;;5018303;28;20534;-52
2023/08/06 12:13:03;;;;;;;0.00;0.00;;;15.00;99.90;;;;;;5025197;28;20272;-51
2023/08/06 12:15:30;;;;;;;0.00;0.00;;;15.00;99.90;;;;;;5023895;28;20278;-51
2023/08/06 12:17:59;;;;;;;0.00;0.00;;;14.90;99.90;;;;;;5021913;28;20252;-51
2023/08/06 12:20:28;;;;;;;0.00;0.00;;;15.00;99.90;;;;;;5022016;28;20941;-51
2023/08/06 12:22:56;;;;;;;0.00;0.00;;;15.00;99.90;;;;;;5021198;28;20230;-51
2023/08/06 12:25:24;;;;;;;0.40;0.00;;;15.10;99.90;;;;;;5019571;28;20203;-51
2023/08/06 12:27:51;;;;;;;0.00;0.00;;;15.20;99.90;;;;;;5019739;28;20706;-52
2023/08/06 12:30:17;;;;;;;0.30;0.10;;;15.20;99.90;;;;;;5025913;28;20726;-52
2023/08/06 12:32:45;;;;;;;0.20;0.20;;;15.20;99.90;;;;;;5020055;28;20226;-52
2023/08/06 12:35:13;;;;;;;0.00;0.00;;;15.40;99.90;;;;;;5027910;28;20206;-52
2023/08/06 12:37:43;;;;;;;0.03;0.00;;;15.40;99.90;;;;;;5022919;28;20634;-52
2023/08/06 12:40:11;;;;;;;0.10;0.07;;;15.40;99.90;;;;;;5019951;28;20374;-52
2023/08/06 12:42:38;;;;;;;0.00;0.00;;;15.40;99.90;;;;;;5023719;28;20284;-51
2023/08/06 12:45:06;;;;;;;0.83;0.20;;;15.50;99.90;;;;;;5023049;28;20203;-52
2023/08/06 12:47:33;;;;;;;0.00;0.00;;;15.50;99.90;;;;;;5024240;28;20519;-51
2023/08/06 12:49:59;;;;;;;0.00;0.00;;;15.50;99.90;;;;;;5028406;28;20276;-51
2023/08/06 12:52:26;;;;;;;0.00;0.00;;;15.60;99.90;;;;;;5024710;28;20225;-51